sensor_id;sensor_type;location;lat;lon;timestamp;pressure;altitude;pressure_sealevel;temperature;humidity
12763;BME280;6445;52.490;13.378;2022-10-16T00:01:16;53040.38;;;-146.10;80.21
12763;BME280;6445;52.490;13.378;2022-10-16T00:03:42;52918.31;;;-146.10;80.02
12763;BME280;6445;52.490;13.378;2022-10-16T00:06:09;52840.25;;;-146.10;79.63
12763;BME280;6445;52.490;13.378;2022-10-16T00:08:35;52852.28;;;-146.10;79.64
12763;BME280;6445;52.490;13.378;2022-10-16T00:11:03;52878.28;;;-146.10;79.73
12763;BME280;6445;52.490;13.378;2022-10-16T00:13:31;52790.25;;;-146.10;79.42
12763;BME280;6445;52.490;13.378;2022-10-16T00:15:57;52796.25;;;-146.10;79.57
12763;BME280;6445;52.490;13.378;2022-10-16T00:18:23;52774.22;;;-146.10;79.40
12763;BME280;6445;52.490;13.378;2022-10-16T00:20:49;52804.25;;;-146.10;79.34
12763;BME280;6445;52.490;13.378;2022-10-16T00:23:14;52802.25;;;-146.10;79.53
12763;BME280;6445;52.490;13.378;2022-10-16T00:25:39;52788.25;;;-146.10;79.47
12763;BME280;6445;52.490;13.378;2022-10-16T00:28:04;52776.22;;;-146.10;79.45
12763;BME280;6445;52.490;13.378;2022-10-16T00:30:30;52730.22;;;-146.10;79.20
12763;BME280;6445;52.490;13.378;2022-10-16T00:32:55;52726.22;;;-146.10;79.03
12763;BME280;6445;52.490;13.378;2022-10-16T00:35:21;52666.19;;;-146.10;78.85
12763;BME280;6445;52.490;13.378;2022-10-16T00:37:46;52686.19;;;-146.10;79.03
12763;BME280;6445;52.490;13.378;2022-10-16T00:40:11;52672.19;;;-146.10;79.01
12763;BME280;6445;52.490;13.378;2022-10-16T00:42:37;52708.22;;;-146.10;78.96
12763;BME280;6445;52.490;13.378;2022-10-16T00:45:03;52692.19;;;-146.10;78.87
12763;BME280;6445;52.490;13.378;2022-10-16T00:47:31;52666.19;;;-146.10;78.83
12763;BME280;6445;52.490;13.378;2022-10-16T00:50:02;52654.19;;;-146.10;78.93
12763;BME280;6445;52.490;13.378;2022-10-16T00:52:31;52654.19;;;-146.10;78.73
12763;BME280;6445;52.490;13.378;2022-10-16T00:54:57;52708.22;;;-146.10;79.10
12763;BME280;6445;52.490;13.378;2022-10-16T00:57:23;52700.19;;;-146.10;79.08
12763;BME280;6445;52.490;13.378;2022-10-16T00:59:49;52698.19;;;-146.10;79.03
12763;BME280;6445;52.490;13.378;2022-10-16T01:02:16;52694.19;;;-146.10;78.94
12763;BME280;6445;52.490;13.378;2022-10-16T01:04:46;52692.19;;;-146.10;78.93
12763;BME280;6445;52.490;13.378;2022-10-16T01:07:26;52672.19;;;-146.10;78.87
12763;BME280;6445;52.490;13.378;2022-10-16T01:15:37;52728.22;;;-146.10;79.31
12763;BME280;6445;52.490;13.378;2022-10-16T01:18:09;52776.22;;;-146.10;79.55
12763;BME280;6445;52.490;13.378;2022-10-16T01:20:51;52852.28;;;-146.10;79.73
12763;BME280;6445;52.490;13.378;2022-10-16T01:28:49;52924.31;;;-146.10;80.15
12763;BME280;6445;52.490;13.378;2022-10-16T01:31:18;52930.31;;;-146.10;80.15
12763;BME280;6445;52.490;13.378;2022-10-16T01:33:50;52908.28;;;-146.10;79.89
12763;BME280;6445;52.490;13.378;2022-10-16T01:36:21;52934.31;;;-146.10;80.06
12763;BME280;6445;52.490;13.378;2022-10-16T01:38:51;52986.34;;;-146.10;80.18
12763;BME280;6445;52.490;13.378;2022-10-16T01:41:22;53010.34;;;-146.10;80.18
12763;BME280;6445;52.490;13.378;2022-10-16T01:46:46;53130.41;;;-146.10;80.57
12763;BME280;6445;52.490;13.378;2022-10-16T01:49:14;53146.41;;;-146.10;80.71
12763;BME280;6445;52.490;13.378;2022-10-16T01:51:41;53166.44;;;-146.10;80.66
12763;BME280;6445;52.490;13.378;2022-10-16T01:54:10;53128.41;;;-146.10;80.59
12763;BME280;6445;52.490;13.378;2022-10-16T01:56:39;53212.44;;;-146.10;80.82
12763;BME280;6445;52.490;13.378;2022-10-16T01:59:09;53224.47;;;-146.10;80.82
12763;BME280;6445;52.490;13.378;2022-10-16T02:01:38;53274.50;;;-146.10;81.01
12763;BME280;6445;52.490;13.378;2022-10-16T02:04:32;53294.50;;;-146.10;81.11
12763;BME280;6445;52.490;13.378;2022-10-16T02:06:58;53222.47;;;-146.10;80.77
12763;BME280;6445;52.490;13.378;2022-10-16T02:09:24;53264.47;;;-146.10;80.90
12763;BME280;6445;52.490;13.378;2022-10-16T02:11:52;53178.44;;;-146.10;80.75
12763;BME280;6445;52.490;13.378;2022-10-16T02:14:18;53124.41;;;-146.10;80.60
12763;BME280;6445;52.490;13.378;2022-10-16T02:16:46;53206.44;;;-146.10;80.90
12763;BME280;6445;52.490;13.378;2022-10-16T02:19:15;53354.53;;;-146.10;81.14
12763;BME280;6445;52.490;13.378;2022-10-16T02:22:02;53312.50;;;-146.10;81.10
12763;BME280;6445;52.490;13.378;2022-10-16T02:24:45;53348.53;;;-146.10;81.25
12763;BME280;6445;52.490;13.378;2022-10-16T02:27:26;53326.53;;;-146.10;81.21
12763;BME280;6445;52.490;13.378;2022-10-16T02:30:03;53244.47;;;-146.10;80.86
12763;BME280;6445;52.490;13.378;2022-10-16T02:32:33;53236.47;;;-146.10;80.87
12763;BME280;6445;52.490;13.378;2022-10-16T02:34:59;53226.47;;;-146.10;80.87
12763;BME280;6445;52.490;13.378;2022-10-16T02:37:25;53244.47;;;-146.10;80.83
12763;BME280;6445;52.490;13.378;2022-10-16T02:39:52;53206.44;;;-146.10;80.85
12763;BME280;6445;52.490;13.378;2022-10-16T02:42:18;53194.44;;;-146.10;80.83
12763;BME280;6445;52.490;13.378;2022-10-16T02:44:43;53184.44;;;-146.10;80.75
12763;BME280;6445;52.490;13.378;2022-10-16T02:47:09;53128.41;;;-146.10;80.70
12763;BME280;6445;52.490;13.378;2022-10-16T02:49:34;53154.41;;;-146.10;80.88
12763;BME280;6445;52.490;13.378;2022-10-16T02:51:59;53100.41;;;-146.10;80.58
12763;BME280;6445;52.490;13.378;2022-10-16T02:54:24;53108.41;;;-146.10;80.59
12763;BME280;6445;52.490;13.378;2022-10-16T02:56:50;53118.41;;;-146.10;80.55
12763;BME280;6445;52.490;13.378;2022-10-16T02:59:15;53126.41;;;-146.10;80.76
12763;BME280;6445;52.490;13.378;2022-10-16T03:01:40;53148.41;;;-146.10;80.70
12763;BME280;6445;52.490;13.378;2022-10-16T03:04:06;53234.47;;;-146.10;80.96
12763;BME280;6445;52.490;13.378;2022-10-16T03:06:31;53292.50;;;-146.10;81.06
12763;BME280;6445;52.490;13.378;2022-10-16T03:08:56;53374.53;;;-146.10;81.27
12763;BME280;6445;52.490;13.378;2022-10-16T03:11:21;53530.63;;;-146.10;81.67
12763;BME280;6445;52.490;13.378;2022-10-16T03:13:47;53606.69;;;-146.10;81.72
12763;BME280;6445;52.490;13.378;2022-10-16T03:16:12;53660.72;;;-146.10;81.75
12763;BME280;6445;52.490;13.378;2022-10-16T03:18:37;53756.78;;;-146.10;82.02
12763;BME280;6445;52.490;13.378;2022-10-16T03:21:02;53824.84;;;-146.10;82.08
12763;BME280;6445;52.490;13.378;2022-10-16T03:23:28;53840.84;;;-146.10;81.82
12763;BME280;6445;52.490;13.378;2022-10-16T03:25:54;53970.94;;;-146.10;82.29
12763;BME280;6445;52.490;13.378;2022-10-16T03:28:19;53930.91;;;-146.10;82.24
12763;BME280;6445;52.490;13.378;2022-10-16T03:30:44;54059.00;;;-146.10;82.42
12763;BME280;6445;52.490;13.378;2022-10-16T03:33:09;54213.13;;;-146.10;82.61
12763;BME280;6445;52.490;13.378;2022-10-16T03:35:35;54305.22;;;-146.10;82.58
12763;BME280;6445;52.490;13.378;2022-10-16T03:38:00;54515.38;;;-146.10;82.78
12763;BME280;6445;52.490;13.378;2022-10-16T03:40:26;54829.69;;;-146.10;83.15
12763;BME280;6445;52.490;13.378;2022-10-16T03:42:51;55059.91;;;-146.10;83.49
12763;BME280;6445;52.490;13.378;2022-10-16T03:45:17;55272.13;;;-146.10;83.51
12763;BME280;6445;52.490;13.378;2022-10-16T03:47:42;55364.22;;;-146.10;83.70
12763;BME280;6445;52.490;13.378;2022-10-16T03:50:08;55564.44;;;-146.10;83.86
12763;BME280;6445;52.490;13.378;2022-10-16T03:52:33;55634.53;;;-146.10;83.82
12763;BME280;6445;52.490;13.378;2022-10-16T03:54:59;55678.59;;;-146.10;83.69
12763;BME280;6445;52.490;13.378;2022-10-16T03:57:24;55882.81;;;-146.10;83.94
12763;BME280;6445;52.490;13.378;2022-10-16T03:59:49;56087.09;;;-146.10;83.93
12763;BME280;6445;52.490;13.378;2022-10-16T04:02:15;56301.38;;;-146.10;83.90
12763;BME280;6445;52.490;13.378;2022-10-16T04:04:41;56175.19;;;-146.10;84.11
12763;BME280;6445;52.490;13.378;2022-10-16T04:07:06;56117.13;;;-146.10;83.94
12763;BME280;6445;52.490;13.378;2022-10-16T04:09:31;56231.28;;;-146.10;84.11
12763;BME280;6445;52.490;13.378;2022-10-16T04:11:56;56371.47;;;-146.10;84.25
12763;BME280;6445;52.490;13.378;2022-10-16T04:14:22;56361.44;;;-146.10;84.07
12763;BME280;6445;52.490;13.378;2022-10-16T04:16:47;56591.75;;;-146.10;84.33
12763;BME280;6445;52.490;13.378;2022-10-16T04:19:12;56603.78;;;-146.10;84.21
12763;BME280;6445;52.490;13.378;2022-10-16T04:21:38;56519.66;;;-146.10;84.33
12763;BME280;6445;52.490;13.378;2022-10-16T04:24:03;56399.50;;;-146.10;84.10
12763;BME280;6445;52.490;13.378;2022-10-16T04:26:29;56043.03;;;-146.10;83.86
12763;BME280;6445;52.490;13.378;2022-10-16T04:28:54;56259.31;;;-146.10;84.10
12763;BME280;6445;52.490;13.378;2022-10-16T04:31:20;56421.53;;;-146.10;84.13
12763;BME280;6445;52.490;13.378;2022-10-16T04:33:45;56341.41;;;-146.10;84.30
12763;BME280;6445;52.490;13.378;2022-10-16T04:36:11;56381.47;;;-146.10;84.02
12763;BME280;6445;52.490;13.378;2022-10-16T04:38:36;56195.22;;;-146.10;84.06
12763;BME280;6445;52.490;13.378;2022-10-16T04:41:03;56637.81;;;-146.10;84.38
12763;BME280;6445;52.490;13.378;2022-10-16T04:43:28;57256.75;;;-146.10;84.73
12763;BME280;6445;52.490;13.378;2022-10-16T04:45:53;57254.75;;;-146.10;84.72
12763;BME280;6445;52.490;13.378;2022-10-16T04:48:19;57443.06;;;-146.10;84.82
12763;BME280;6445;52.490;13.378;2022-10-16T04:50:45;58078.13;;;-146.10;84.83
12763;BME280;6445;52.490;13.378;2022-10-16T04:53:10;58260.47;;;-146.10;84.90
12763;BME280;6445;52.490;13.378;2022-10-16T04:55:36;58486.88;;;-146.10;85.13
12763;BME280;6445;52.490;13.378;2022-10-16T04:58:02;58168.28;;;-146.10;84.79
12763;BME280;6445;52.490;13.378;2022-10-16T05:00:27;57843.72;;;-146.10;84.92
12763;BME280;6445;52.490;13.378;2022-10-16T05:02:53;58677.25;;;-146.10;85.21
12763;BME280;6445;52.490;13.378;2022-10-16T05:05:18;60547.28;;;-146.10;85.75
12763;BME280;6445;52.490;13.378;2022-10-16T05:07:47;59963.94;;;-146.10;85.41
12763;BME280;6445;52.490;13.378;2022-10-16T05:10:12;60210.50;;;-146.10;85.66
12763;BME280;6445;52.490;13.378;2022-10-16T05:12:38;61150.78;;;-146.10;85.89
12763;BME280;6445;52.490;13.378;2022-10-16T05:15:04;62091.28;;;-146.10;86.08
12763;BME280;6445;52.490;13.378;2022-10-16T05:17:29;63174.47;;;-146.10;86.04
12763;BME280;6445;52.490;13.378;2022-10-16T05:19:54;60894.13;;;-146.10;85.53
12763;BME280;6445;52.490;13.378;2022-10-16T05:22:20;58739.34;;;-146.10;85.17
12763;BME280;6445;52.490;13.378;2022-10-16T05:24:45;59524.97;;;-146.10;85.47
12763;BME280;6445;52.490;13.378;2022-10-16T05:27:10;59771.50;;;-146.10;85.61
12763;BME280;6445;52.490;13.378;2022-10-16T05:29:44;59579.09;;;-146.10;85.56
12763;BME280;6445;52.490;13.378;2022-10-16T05:32:10;60429.00;;;-146.10;85.59
12763;BME280;6445;52.490;13.378;2022-10-16T05:34:36;58939.75;;;-146.10;85.03
12763;BME280;6445;52.490;13.378;2022-10-16T05:37:01;58975.81;;;-146.10;85.28
12763;BME280;6445;52.490;13.378;2022-10-16T05:39:26;60976.34;;;-146.10;85.88
12763;BME280;6445;52.490;13.378;2022-10-16T05:41:51;61583.91;;;-146.10;85.90
12763;BME280;6445;52.490;13.378;2022-10-16T05:44:17;60453.06;;;-146.10;85.59
12763;BME280;6445;52.490;13.378;2022-10-16T05:46:42;60366.84;;;-146.10;85.51
12763;BME280;6445;52.490;13.378;2022-10-16T05:49:07;61664.13;;;-146.10;85.97
12763;BME280;6445;52.490;13.378;2022-10-16T05:51:33;63236.66;;;-146.10;86.16
12763;BME280;6445;52.490;13.378;2022-10-16T05:53:58;62851.47;;;-146.10;86.29
12763;BME280;6445;52.490;13.378;2022-10-16T05:56:23;61335.25;;;-146.10;85.70
12763;BME280;6445;52.490;13.378;2022-10-16T05:58:48;58222.38;;;-146.10;85.01
12763;BME280;6445;52.490;13.378;2022-10-16T06:01:16;58370.66;;;-146.10;85.14
12763;BME280;6445;52.490;13.378;2022-10-16T06:03:41;58184.31;;;-146.10;85.05
12763;BME280;6445;52.490;13.378;2022-10-16T06:06:15;57723.50;;;-146.10;84.84
12763;BME280;6445;52.490;13.378;2022-10-16T06:08:42;58613.13;;;-146.10;85.07
12763;BME280;6445;52.490;13.378;2022-10-16T06:11:10;58603.09;;;-146.10;85.04
12763;BME280;6445;52.490;13.378;2022-10-16T06:13:36;56531.69;;;-146.10;84.21
12763;BME280;6445;52.490;13.378;2022-10-16T06:16:02;55742.66;;;-146.10;83.64
12763;BME280;6445;52.490;13.378;2022-10-16T06:18:29;55650.56;;;-146.10;83.72
12763;BME280;6445;52.490;13.378;2022-10-16T06:20:55;55702.63;;;-146.10;83.79
12763;BME280;6445;52.490;13.378;2022-10-16T06:23:20;55103.94;;;-146.10;83.39
12763;BME280;6445;52.490;13.378;2022-10-16T06:25:46;55318.19;;;-146.10;83.50
12763;BME280;6445;52.490;13.378;2022-10-16T06:28:13;54629.50;;;-146.10;83.04
12763;BME280;6445;52.490;13.378;2022-10-16T06:30:39;54685.53;;;-146.10;82.93
12763;BME280;6445;52.490;13.378;2022-10-16T06:33:04;54779.63;;;-146.10;83.28
12763;BME280;6445;52.490;13.378;2022-10-16T06:35:29;54619.47;;;-146.10;83.20
12763;BME280;6445;52.490;13.378;2022-10-16T06:37:56;54771.63;;;-146.10;83.21
12763;BME280;6445;52.490;13.378;2022-10-16T06:40:22;55184.03;;;-146.10;83.42
12763;BME280;6445;52.490;13.378;2022-10-16T06:42:47;55001.84;;;-146.10;83.42
12763;BME280;6445;52.490;13.378;2022-10-16T06:45:12;55101.94;;;-146.10;83.39
12763;BME280;6445;52.490;13.378;2022-10-16T06:47:37;55065.91;;;-146.10;83.44
12763;BME280;6445;52.490;13.378;2022-10-16T06:50:03;54835.69;;;-146.10;83.27
12763;BME280;6445;52.490;13.378;2022-10-16T06:52:28;54871.72;;;-146.10;83.19
12763;BME280;6445;52.490;13.378;2022-10-16T06:54:54;54535.41;;;-146.10;82.98
12763;BME280;6445;52.490;13.378;2022-10-16T06:57:19;53878.88;;;-146.10;81.94
12763;BME280;6445;52.490;13.378;2022-10-16T06:59:44;53684.75;;;-146.10;81.76
12763;BME280;6445;52.490;13.378;2022-10-16T07:02:09;53432.59;;;-146.10;81.43
12763;BME280;6445;52.490;13.378;2022-10-16T07:04:35;53442.59;;;-146.10;81.33
12763;BME280;6445;52.490;13.378;2022-10-16T07:07:01;53270.47;;;-146.10;80.93
12763;BME280;6445;52.490;13.378;2022-10-16T07:09:26;53144.41;;;-146.10;80.49
12763;BME280;6445;52.490;13.378;2022-10-16T07:11:51;52784.25;;;-146.10;79.24
12763;BME280;6445;52.490;13.378;2022-10-16T07:14:18;52534.13;;;-146.10;77.60
12763;BME280;6445;52.490;13.378;2022-10-16T07:16:43;52504.13;;;-146.10;77.57
12763;BME280;6445;52.490;13.378;2022-10-16T07:19:09;52416.09;;;-146.10;77.03
12763;BME280;6445;52.490;13.378;2022-10-16T07:21:36;52406.09;;;-146.10;76.84
12763;BME280;6445;52.490;13.378;2022-10-16T07:24:02;52416.09;;;-146.10;76.43
12763;BME280;6445;52.490;13.378;2022-10-16T07:26:33;52436.09;;;-146.10;76.92
12763;BME280;6445;52.490;13.378;2022-10-16T07:28:58;52372.06;;;-146.10;76.30
12763;BME280;6445;52.490;13.378;2022-10-16T07:31:24;52348.06;;;-146.10;76.00
12763;BME280;6445;52.490;13.378;2022-10-16T07:33:50;52358.06;;;-146.10;75.99
12763;BME280;6445;52.490;13.378;2022-10-16T07:36:17;52380.09;;;-146.10;76.88
12763;BME280;6445;52.490;13.378;2022-10-16T07:38:43;52330.06;;;-146.10;75.36
12763;BME280;6445;52.490;13.378;2022-10-16T07:41:11;52298.06;;;-146.10;75.20
12763;BME280;6445;52.490;13.378;2022-10-16T07:43:36;52288.06;;;-146.10;75.04
12763;BME280;6445;52.490;13.378;2022-10-16T07:46:02;52288.06;;;-146.10;75.30
12763;BME280;6445;52.490;13.378;2022-10-16T07:48:32;52312.06;;;-146.10;75.38
12763;BME280;6445;52.490;13.378;2022-10-16T07:50:59;52270.03;;;-146.10;74.56
12763;BME280;6445;52.490;13.378;2022-10-16T07:53:24;52272.03;;;-146.10;74.72
12763;BME280;6445;52.490;13.378;2022-10-16T07:55:49;52278.03;;;-146.10;74.85
12763;BME280;6445;52.490;13.378;2022-10-16T07:58:15;52302.06;;;-146.10;74.97
12763;BME280;6445;52.490;13.378;2022-10-16T08:00:40;52292.06;;;-146.10;75.03
12763;BME280;6445;52.490;13.378;2022-10-16T08:03:05;52352.06;;;-146.10;76.34
12763;BME280;6445;52.490;13.378;2022-10-16T08:05:32;52316.06;;;-146.10;75.79
12763;BME280;6445;52.490;13.378;2022-10-16T08:10:25;52296.06;;;-146.10;75.43
12763;BME280;6445;52.490;13.378;2022-10-16T08:12:51;52308.06;;;-146.10;75.49
12763;BME280;6445;52.490;13.378;2022-10-16T08:15:17;52320.06;;;-146.10;75.45
12763;BME280;6445;52.490;13.378;2022-10-16T08:20:08;52286.03;;;-146.10;74.68
12763;BME280;6445;52.490;13.378;2022-10-16T08:22:34;52272.03;;;-146.10;74.34
12763;BME280;6445;52.490;13.378;2022-10-16T08:24:59;52292.06;;;-146.10;74.59
12763;BME280;6445;52.490;13.378;2022-10-16T08:27:24;52298.06;;;-146.10;74.55
12763;BME280;6445;52.490;13.378;2022-10-16T08:29:50;52242.03;;;-146.10;73.61
12763;BME280;6445;52.490;13.378;2022-10-16T08:32:15;52250.03;;;-146.10;72.19
12763;BME280;6445;52.490;13.378;2022-10-16T08:34:41;52258.03;;;-146.10;72.73
12763;BME280;6445;52.490;13.378;2022-10-16T08:37:06;52238.03;;;-146.10;72.60
12763;BME280;6445;52.490;13.378;2022-10-16T08:39:33;52214.03;;;-146.10;72.07
12763;BME280;6445;52.490;13.378;2022-10-16T08:45:03;52236.03;;;-146.10;70.94
12763;BME280;6445;52.490;13.378;2022-10-16T08:47:42;52224.03;;;-146.10;70.61
12763;BME280;6445;52.490;13.378;2022-10-16T08:50:13;52202.03;;;-146.10;70.25
12763;BME280;6445;52.490;13.378;2022-10-16T08:52:41;52208.03;;;-146.10;70.51
12763;BME280;6445;52.490;13.378;2022-10-16T08:55:29;52204.03;;;-146.10;70.77
12763;BME280;6445;52.490;13.378;2022-10-16T08:57:55;52204.03;;;-146.10;70.93
12763;BME280;6445;52.490;13.378;2022-10-16T09:00:20;52206.03;;;-146.10;71.41
12763;BME280;6445;52.490;13.378;2022-10-16T09:06:15;52218.03;;;-146.10;70.89
12763;BME280;6445;52.490;13.378;2022-10-16T09:09:26;52242.03;;;-146.10;68.59
12763;BME280;6445;52.490;13.378;2022-10-16T09:20:32;52232.03;;;-146.10;65.18
12763;BME280;6445;52.490;13.378;2022-10-16T09:23:18;52216.03;;;-146.10;64.85
12763;BME280;6445;52.490;13.378;2022-10-16T09:25:48;52252.03;;;-146.10;64.79
12763;BME280;6445;52.490;13.378;2022-10-16T09:28:15;52268.03;;;-146.10;62.35
12763;BME280;6445;52.490;13.378;2022-10-16T09:30:40;52358.06;;;-146.10;58.72
12763;BME280;6445;52.490;13.378;2022-10-16T09:33:08;52368.06;;;-146.10;57.25
12763;BME280;6445;52.490;13.378;2022-10-16T09:35:45;52292.06;;;-146.10;58.81
12763;BME280;6445;52.490;13.378;2022-10-16T09:38:40;52262.03;;;-146.10;60.40
12763;BME280;6445;52.490;13.378;2022-10-16T09:43:59;52330.06;;;-146.10;57.98
12763;BME280;6445;52.490;13.378;2022-10-16T09:46:32;52414.09;;;-146.10;52.46
12763;BME280;6445;52.490;13.378;2022-10-16T09:49:04;52396.09;;;-146.10;52.49
12763;BME280;6445;52.490;13.378;2022-10-16T09:51:35;52322.06;;;-146.10;55.68
12763;BME280;6445;52.490;13.378;2022-10-16T09:56:33;52314.06;;;-146.10;57.99
12763;BME280;6445;52.490;13.378;2022-10-16T09:59:08;52308.06;;;-146.10;57.43
12763;BME280;6445;52.490;13.378;2022-10-16T10:01:43;52296.06;;;-146.10;57.31
12763;BME280;6445;52.490;13.378;2022-10-16T10:04:09;52382.09;;;-146.10;55.20
12763;BME280;6445;52.490;13.378;2022-10-16T10:06:37;52408.09;;;-146.10;53.38
12763;BME280;6445;52.490;13.378;2022-10-16T10:09:15;52360.06;;;-146.10;54.08
12763;BME280;6445;52.490;13.378;2022-10-16T10:11:57;52336.06;;;-146.10;54.39
12763;BME280;6445;52.490;13.378;2022-10-16T10:14:26;52322.06;;;-146.10;56.22
12763;BME280;6445;52.490;13.378;2022-10-16T10:17:07;52298.06;;;-146.10;57.54
12763;BME280;6445;52.490;13.378;2022-10-16T10:19:46;52286.03;;;-146.10;57.42
12763;BME280;6445;52.490;13.378;2022-10-16T10:22:30;52282.03;;;-146.10;56.97
12763;BME280;6445;52.490;13.378;2022-10-16T10:25:10;52304.06;;;-146.10;57.66
12763;BME280;6445;52.490;13.378;2022-10-16T10:28:14;52276.03;;;-146.10;58.12
12763;BME280;6445;52.490;13.378;2022-10-16T10:30:59;52282.03;;;-146.10;58.09
12763;BME280;6445;52.490;13.378;2022-10-16T10:34:00;52264.03;;;-146.10;57.47
12763;BME280;6445;52.490;13.378;2022-10-16T10:36:37;52242.03;;;-146.10;57.20
12763;BME280;6445;52.490;13.378;2022-10-16T10:39:13;52322.06;;;-146.10;56.07
12763;BME280;6445;52.490;13.378;2022-10-16T10:45:18;52294.06;;;-146.10;54.44
12763;BME280;6445;52.490;13.378;2022-10-16T10:48:03;52284.03;;;-146.10;54.79
12763;BME280;6445;52.490;13.378;2022-10-16T10:53:30;52290.06;;;-146.10;54.59
12763;BME280;6445;52.490;13.378;2022-10-16T10:58:42;52266.03;;;-146.10;54.93
12763;BME280;6445;52.490;13.378;2022-10-16T11:01:13;52274.03;;;-146.10;54.96
12763;BME280;6445;52.490;13.378;2022-10-16T11:06:48;52282.03;;;-146.10;53.41
12763;BME280;6445;52.490;13.378;2022-10-16T11:09:33;52314.06;;;-146.10;53.01
12763;BME280;6445;52.490;13.378;2022-10-16T11:12:17;52326.06;;;-146.10;51.46
12763;BME280;6445;52.490;13.378;2022-10-16T11:14:49;52334.06;;;-146.10;51.33
12763;BME280;6445;52.490;13.378;2022-10-16T11:17:23;52308.06;;;-146.10;50.96
12763;BME280;6445;52.490;13.378;2022-10-16T11:19:58;52328.06;;;-146.10;51.08
12763;BME280;6445;52.490;13.378;2022-10-16T11:23:16;52324.06;;;-146.10;51.35
12763;BME280;6445;52.490;13.378;2022-10-16T11:25:40;52300.06;;;-146.10;51.57
12763;BME280;6445;52.490;13.378;2022-10-16T11:28:14;52300.06;;;-146.10;51.25
12763;BME280;6445;52.490;13.378;2022-10-16T11:30:50;52304.06;;;-146.10;50.87
12763;BME280;6445;52.490;13.378;2022-10-16T11:36:14;52316.06;;;-146.10;50.12
12763;BME280;6445;52.490;13.378;2022-10-16T11:38:48;52316.06;;;-146.10;48.77
12763;BME280;6445;52.490;13.378;2022-10-16T11:41:49;52336.06;;;-146.10;47.61
12763;BME280;6445;52.490;13.378;2022-10-16T11:44:36;52350.06;;;-146.10;47.39
12763;BME280;6445;52.490;13.378;2022-10-16T11:47:40;52340.06;;;-146.10;46.73
12763;BME280;6445;52.490;13.378;2022-10-16T11:50:34;52328.06;;;-146.10;47.35
12763;BME280;6445;52.490;13.378;2022-10-16T11:55:45;52314.06;;;-146.10;48.19
12763;BME280;6445;52.490;13.378;2022-10-16T11:58:32;52298.06;;;-146.10;47.66
12763;BME280;6445;52.490;13.378;2022-10-16T12:01:15;52300.06;;;-146.10;47.45
12763;BME280;6445;52.490;13.378;2022-10-16T12:04:05;52296.06;;;-146.10;47.74
12763;BME280;6445;52.490;13.378;2022-10-16T12:06:37;52304.06;;;-146.10;47.50
12763;BME280;6445;52.490;13.378;2022-10-16T12:09:04;52324.06;;;-146.10;46.67
12763;BME280;6445;52.490;13.378;2022-10-16T12:11:33;52272.03;;;-146.10;47.36
12763;BME280;6445;52.490;13.378;2022-10-16T12:14:05;52312.06;;;-146.10;46.26
12763;BME280;6445;52.490;13.378;2022-10-16T12:16:32;52380.09;;;-146.10;43.64
12763;BME280;6445;52.490;13.378;2022-10-16T12:19:11;52460.09;;;-146.10;40.44
12763;BME280;6445;52.490;13.378;2022-10-16T12:21:37;52452.09;;;-146.10;39.17
12763;BME280;6445;52.490;13.378;2022-10-16T12:24:03;52532.13;;;-146.10;37.89
12763;BME280;6445;52.490;13.378;2022-10-16T12:26:33;52520.13;;;-146.10;37.88
12763;BME280;6445;52.490;13.378;2022-10-16T12:31:49;52424.09;;;-146.10;40.57
12763;BME280;6445;52.490;13.378;2022-10-16T12:34:42;52370.06;;;-146.10;41.76
12763;BME280;6445;52.490;13.378;2022-10-16T12:37:20;52424.09;;;-146.10;41.01
12763;BME280;6445;52.490;13.378;2022-10-16T12:39:47;52506.13;;;-146.10;38.61
12763;BME280;6445;52.490;13.378;2022-10-16T12:42:43;52634.19;;;-146.10;36.72
12763;BME280;6445;52.490;13.378;2022-10-16T12:45:26;52692.19;;;-146.10;35.51
12763;BME280;6445;52.490;13.378;2022-10-16T12:47:53;52722.22;;;-146.10;34.32
12763;BME280;6445;52.490;13.378;2022-10-16T12:50:31;52792.25;;;-146.10;33.60
12763;BME280;6445;52.490;13.378;2022-10-16T12:52:58;52792.25;;;-146.10;33.25
12763;BME280;6445;52.490;13.378;2022-10-16T12:55:23;52648.19;;;-146.10;34.80
12763;BME280;6445;52.490;13.378;2022-10-16T13:00:56;52612.16;;;-146.10;35.63
12763;BME280;6445;52.490;13.378;2022-10-16T13:03:50;52646.19;;;-146.10;35.21
12763;BME280;6445;52.490;13.378;2022-10-16T13:09:20;52452.09;;;-146.10;37.89
12763;BME280;6445;52.490;13.378;2022-10-16T13:12:03;52402.09;;;-146.10;39.70
12763;BME280;6445;52.490;13.378;2022-10-16T13:15:02;52366.06;;;-146.10;41.27
12763;BME280;6445;52.490;13.378;2022-10-16T13:17:43;52372.06;;;-146.10;41.29
12763;BME280;6445;52.490;13.378;2022-10-16T13:20:22;52384.09;;;-146.10;40.94
12763;BME280;6445;52.490;13.378;2022-10-16T13:23:05;52388.09;;;-146.10;40.95
12763;BME280;6445;52.490;13.378;2022-10-16T13:25:55;52344.06;;;-146.10;41.88
12763;BME280;6445;52.490;13.378;2022-10-16T13:28:28;52434.09;;;-146.10;39.96
12763;BME280;6445;52.490;13.378;2022-10-16T13:31:00;52400.09;;;-146.10;40.16
12763;BME280;6445;52.490;13.378;2022-10-16T13:33:41;52340.06;;;-146.10;41.37
12763;BME280;6445;52.490;13.378;2022-10-16T13:36:18;52366.06;;;-146.10;41.65
12763;BME280;6445;52.490;13.378;2022-10-16T13:38:44;52354.06;;;-146.10;42.33
12763;BME280;6445;52.490;13.378;2022-10-16T13:41:17;52340.06;;;-146.10;42.41
12763;BME280;6445;52.490;13.378;2022-10-16T13:43:49;52374.06;;;-146.10;42.50
12763;BME280;6445;52.490;13.378;2022-10-16T13:46:18;52320.06;;;-146.10;42.47
12763;BME280;6445;52.490;13.378;2022-10-16T13:48:44;52332.06;;;-146.10;42.54
12763;BME280;6445;52.490;13.378;2022-10-16T13:53:42;52334.06;;;-146.10;42.85
12763;BME280;6445;52.490;13.378;2022-10-16T13:56:13;52286.03;;;-146.10;43.46
12763;BME280;6445;52.490;13.378;2022-10-16T13:58:39;52266.03;;;-146.10;43.78
12763;BME280;6445;52.490;13.378;2022-10-16T14:01:15;52268.03;;;-146.10;44.51
12763;BME280;6445;52.490;13.378;2022-10-16T14:03:41;52290.06;;;-146.10;45.12